Time;durP1;ratioP1;P1;durP2;ratioP2;P2;SDS_P1;SDS_P2;PMS_P1;PMS_P2;Temp;Humidity;BMP_temperature;BMP_pressure;BME280_temperature;BME280_humidity;BME280_pressure;Samples;Min_cycle;Max_cycle;Signal;HPM_P1;HPM_P2
2021/04/10 00:01:45;;;;;;;12.87;6.80;;;8.20;99.90;;;;;;5070067;28;20260;-80
2021/04/10 00:04:12;;;;;;;15.30;7.47;;;8.30;99.90;;;;;;5068932;28;20299;-79
2021/04/10 00:06:41;;;;;;;14.80;6.37;;;8.30;99.90;;;;;;5081268;28;20788;-80
2021/04/10 00:09:08;;;;;;;11.40;6.97;;;8.40;99.90;;;;;;5081522;28;20207;-80
2021/04/10 00:11:35;;;;;;;8.87;6.20;;;8.40;99.90;;;;;;5081194;28;20257;-79
2021/04/10 00:14:05;;;;;;;13.47;6.70;;;8.20;99.90;;;;;;5089995;28;20197;-80
2021/04/10 00:16:32;;;;;;;13.23;6.17;;;8.20;99.90;;;;;;5087957;28;20203;-79
2021/04/10 00:18:59;;;;;;;12.40;6.53;;;8.10;99.90;;;;;;5072765;28;20198;-79
2021/04/10 00:21:26;;;;;;;13.63;6.27;;;8.20;99.90;;;;;;5088479;28;20269;-79
2021/04/10 00:23:52;;;;;;;13.07;7.00;;;8.20;99.90;;;;;;5056234;28;20250;-81
2021/04/10 00:26:19;;;;;;;11.90;6.70;;;8.10;99.90;;;;;;5085935;28;20199;-81
2021/04/10 00:28:46;;;;;;;13.47;6.17;;;8.20;99.90;;;;;;5085258;28;20304;-80
2021/04/10 00:31:13;;;;;;;12.33;6.10;;;8.20;99.90;;;;;;5057908;28;20190;-81
2021/04/10 00:33:41;;;;;;;10.17;5.93;;;8.10;99.90;;;;;;5071972;28;20205;-79
2021/04/10 00:36:08;;;;;;;8.90;5.83;;;8.30;99.90;;;;;;5081742;28;20296;-82
2021/04/10 00:38:36;;;;;;;11.33;6.30;;;8.20;99.90;;;;;;5090408;28;20194;-80
2021/04/10 00:41:04;;;;;;;10.47;5.47;;;8.10;99.90;;;;;;5089221;28;20230;-81
2021/04/10 00:43:30;;;;;;;12.57;4.87;;;8.10;99.90;;;;;;5073415;28;20199;-81
2021/04/10 00:45:57;;;;;;;8.53;4.80;;;7.90;99.90;;;;;;5093463;28;20284;-80
2021/04/10 00:48:23;;;;;;;11.97;4.73;;;8.00;99.90;;;;;;5080930;28;20233;-80
2021/04/10 00:50:54;;;;;;;11.13;5.47;;;7.90;99.90;;;;;;5071043;28;20559;-80
2021/04/10 00:53:23;;;;;;;9.77;4.57;;;7.90;99.90;;;;;;5085964;28;20240;-82
2021/04/10 00:55:52;;;;;;;9.83;5.23;;;7.90;99.90;;;;;;5092847;28;20215;-81
2021/04/10 00:58:20;;;;;;;10.17;4.97;;;7.70;99.90;;;;;;5080178;28;20255;-80
2021/04/10 01:00:46;;;;;;;13.53;4.63;;;7.80;99.90;;;;;;5068925;28;20207;-80
2021/04/10 01:03:13;;;;;;;11.97;5.23;;;7.80;99.90;;;;;;5068182;28;20193;-80
2021/04/10 01:05:39;;;;;;;11.37;6.03;;;7.70;99.90;;;;;;5086637;28;20227;-82
2021/04/10 01:08:06;;;;;;;9.83;5.57;;;7.60;99.90;;;;;;5072914;28;20259;-80
2021/04/10 01:10:32;;;;;;;13.20;5.30;;;7.70;99.90;;;;;;5073994;28;20307;-79
2021/04/10 01:13:06;;;;;;;13.60;5.50;;;7.90;99.90;;;;;;5071792;28;20569;-81
2021/04/10 01:15:46;;;;;;;10.73;4.90;;;7.70;99.90;;;;;;5086408;28;20204;-79
2021/04/10 01:18:26;;;;;;;8.97;5.27;;;7.70;99.90;;;;;;5087870;28;20197;-79
2021/04/10 01:20:58;;;;;;;9.07;4.43;;;7.80;99.90;;;;;;5086078;28;20300;-80
2021/04/10 01:24:02;;;;;;;13.23;5.13;;;7.80;99.90;;;;;;5081673;28;20662;-79
2021/04/10 01:26:51;;;;;;;11.67;4.70;;;7.90;99.90;;;;;;5080874;28;20222;-80
2021/04/10 01:29:18;;;;;;;8.60;4.03;;;8.00;99.90;;;;;;5086231;28;20244;-81
2021/04/10 01:31:48;;;;;;;7.30;4.00;;;8.00;99.90;;;;;;5054684;28;20194;-79
2021/04/10 01:34:29;;;;;;;12.03;4.30;;;7.70;99.90;;;;;;5092022;28;20655;-81
2021/04/10 01:37:03;;;;;;;8.30;3.40;;;7.80;99.90;;;;;;5085736;28;20593;-80
2021/04/10 01:39:31;;;;;;;4.73;2.87;;;7.80;99.90;;;;;;5085589;28;20249;-79
2021/04/10 01:41:58;;;;;;;5.40;2.80;;;7.80;99.90;;;;;;5088989;28;20272;-81
2021/04/10 01:44:25;;;;;;;6.57;3.30;;;7.70;99.90;;;;;;5070777;28;20230;-81
2021/04/10 01:46:53;;;;;;;8.40;2.77;;;7.70;99.90;;;;;;5086836;28;20257;-80
2021/04/10 01:49:20;;;;;;;4.43;2.30;;;7.70;99.90;;;;;;5067049;28;20286;-82
2021/04/10 01:51:47;;;;;;;7.20;2.57;;;7.60;99.90;;;;;;5086272;28;20257;-79
2021/04/10 01:54:14;;;;;;;3.93;2.57;;;7.60;99.90;;;;;;5085212;28;20214;-79
2021/04/10 01:56:45;;;;;;;5.47;2.63;;;7.80;99.90;;;;;;5072864;28;20650;-81
2021/04/10 01:59:14;;;;;;;9.23;2.93;;;7.80;99.90;;;;;;5088245;28;20222;-80
2021/04/10 02:01:43;;;;;;;9.90;2.83;;;7.70;99.90;;;;;;5086571;28;20232;-79
2021/04/10 02:04:12;;;;;;;4.23;2.80;;;7.70;99.90;;;;;;5087539;28;20674;-79
2021/04/10 02:06:40;;;;;;;8.00;3.17;;;7.60;99.90;;;;;;5070278;28;20231;-79
2021/04/10 02:09:06;;;;;;;13.47;3.63;;;7.70;99.90;;;;;;5079671;28;20693;-81
2021/04/10 02:11:38;;;;;;;7.13;2.37;;;7.70;99.90;;;;;;5086294;28;20197;-80
2021/04/10 02:14:07;;;;;;;10.33;3.30;;;7.60;99.90;;;;;;5084307;28;20284;-81
2021/04/10 02:16:35;;;;;;;5.50;2.63;;;7.80;99.90;;;;;;5085278;28;20667;-79
2021/04/10 02:19:02;;;;;;;6.57;2.77;;;7.60;99.90;;;;;;5067080;28;20639;-80
2021/04/10 02:21:29;;;;;;;9.80;2.23;;;7.70;99.90;;;;;;5071330;28;20191;-81
2021/04/10 02:23:57;;;;;;;4.27;2.67;;;7.60;99.90;;;;;;5086422;28;20198;-81
2021/04/10 02:26:25;;;;;;;8.93;2.13;;;7.60;99.90;;;;;;5083379;28;20193;-79
2021/04/10 02:28:51;;;;;;;8.60;3.07;;;7.50;99.90;;;;;;5083537;28;20260;-79
2021/04/10 02:31:27;;;;;;;6.23;2.50;;;7.50;99.90;;;;;;5069635;28;20209;-79
2021/04/10 02:34:04;;;;;;;6.03;2.70;;;7.50;99.90;;;;;;5088043;28;20229;-79
2021/04/10 02:36:35;;;;;;;8.93;3.17;;;7.50;99.90;;;;;;5084307;28;20288;-80
2021/04/10 02:39:01;;;;;;;8.30;2.60;;;7.50;99.90;;;;;;5080806;28;20539;-80
2021/04/10 02:41:28;;;;;;;6.67;2.30;;;7.60;99.90;;;;;;5084783;28;20230;-79
2021/04/10 02:44:13;;;;;;;4.97;2.63;;;7.70;99.90;;;;;;5068334;28;20248;-79
2021/04/10 02:46:45;;;;;;;5.57;2.47;;;7.50;99.90;;;;;;5088347;28;20219;-81
2021/04/10 02:49:17;;;;;;;10.17;3.00;;;7.50;99.90;;;;;;5084094;28;20243;-80
2021/04/10 02:51:54;;;;;;;3.90;2.37;;;7.40;99.90;;;;;;5087826;28;20198;-79
2021/04/10 02:54:24;;;;;;;8.17;2.80;;;7.50;99.90;;;;;;5103391;28;20207;-81
2021/04/10 02:57:04;;;;;;;10.27;2.90;;;7.50;99.90;;;;;;5085819;28;20221;-81
2021/04/10 02:59:33;;;;;;;10.20;2.47;;;7.50;99.90;;;;;;5083924;28;20204;-79
2021/04/10 03:02:01;;;;;;;7.07;2.53;;;7.50;99.90;;;;;;5082532;28;20275;-79
2021/04/10 03:04:29;;;;;;;5.83;2.40;;;7.50;99.90;;;;;;5086321;28;20300;-80
2021/04/10 03:06:56;;;;;;;5.27;2.33;;;7.40;99.90;;;;;;5080839;28;20225;-81
2021/04/10 03:09:23;;;;;;;7.13;2.27;;;7.60;99.90;;;;;;5084469;28;20198;-80
2021/04/10 03:11:50;;;;;;;6.50;2.17;;;7.30;99.90;;;;;;5077013;28;20206;-80
2021/04/10 03:14:17;;;;;;;4.77;2.57;;;7.50;99.90;;;;;;5082685;28;20199;-80
2021/04/10 03:16:45;;;;;;;5.13;2.37;;;7.40;99.90;;;;;;5085342;28;20204;-80
2021/04/10 03:19:13;;;;;;;6.53;2.83;;;7.60;99.90;;;;;;5069736;28;20205;-79
2021/04/10 03:21:41;;;;;;;8.27;2.30;;;7.50;99.90;;;;;;5082358;28;20366;-79
2021/04/10 03:24:11;;;;;;;5.50;2.47;;;7.30;99.90;;;;;;5078331;28;20545;-79
2021/04/10 03:26:38;;;;;;;8.83;1.97;;;7.40;99.90;;;;;;5086017;28;20248;-79
2021/04/10 03:29:05;;;;;;;4.67;1.80;;;7.40;99.90;;;;;;5069685;28;20206;-80
2021/04/10 03:31:33;;;;;;;6.90;2.40;;;7.50;99.90;;;;;;5083085;28;20202;-80
2021/04/10 03:34:00;;;;;;;7.70;2.30;;;7.50;99.90;;;;;;5083478;28;20219;-79
2021/04/10 03:36:27;;;;;;;3.30;2.03;;;7.40;99.90;;;;;;5068596;28;20213;-80
2021/04/10 03:38:54;;;;;;;3.00;1.90;;;7.30;99.90;;;;;;5080302;28;20255;-80
2021/04/10 03:41:22;;;;;;;3.97;1.90;;;7.30;99.90;;;;;;5072214;28;20214;-82
2021/04/10 03:43:49;;;;;;;6.83;2.60;;;7.40;99.90;;;;;;5068243;28;20251;-80
2021/04/10 03:46:16;;;;;;;4.23;1.70;;;7.30;99.90;;;;;;5069744;28;20217;-79
2021/04/10 03:48:42;;;;;;;4.67;2.17;;;7.40;99.90;;;;;;5095816;28;20236;-79
2021/04/10 03:51:09;;;;;;;6.43;2.30;;;7.50;99.90;;;;;;5066452;28;20195;-80
2021/04/10 03:53:35;;;;;;;4.23;2.10;;;7.40;99.90;;;;;;5084726;28;20202;-79
2021/04/10 03:56:01;;;;;;;9.43;2.70;;;7.30;99.90;;;;;;5085855;28;20266;-81
2021/04/10 03:58:28;;;;;;;8.53;2.77;;;7.30;99.90;;;;;;5077697;28;20815;-80
2021/04/10 04:00:56;;;;;;;6.37;2.00;;;7.50;99.90;;;;;;5065219;28;20231;-79
2021/04/10 04:03:23;;;;;;;3.73;2.40;;;7.40;99.90;;;;;;5065380;28;20534;-79
2021/04/10 04:05:50;;;;;;;6.53;2.30;;;7.20;99.90;;;;;;5071902;28;20268;-80
2021/04/10 04:08:16;;;;;;;8.37;2.40;;;7.30;99.90;;;;;;5087667;28;20244;-81
2021/04/10 04:10:43;;;;;;;10.73;2.10;;;7.20;99.90;;;;;;5078091;28;20592;-80
2021/04/10 04:13:09;;;;;;;6.63;2.20;;;7.40;99.90;;;;;;5071131;28;20194;-80
2021/04/10 04:15:35;;;;;;;6.93;2.13;;;7.30;99.90;;;;;;5069317;28;20264;-80
2021/04/10 04:18:02;;;;;;;7.00;2.37;;;7.20;99.90;;;;;;5085113;28;20268;-81
2021/04/10 04:20:28;;;;;;;4.20;2.03;;;7.20;99.90;;;;;;5066395;28;20274;-80
2021/04/10 04:22:56;;;;;;;7.00;2.23;;;7.00;99.90;;;;;;5065867;28;20207;-80
2021/04/10 04:25:23;;;;;;;4.20;2.37;;;7.10;99.90;;;;;;5064777;28;20306;-80
2021/04/10 04:27:51;;;;;;;11.63;2.83;;;7.30;99.90;;;;;;5064480;28;20279;-80
2021/04/10 04:30:19;;;;;;;7.67;2.23;;;7.30;99.90;;;;;;5083688;28;20221;-81
2021/04/10 04:32:45;;;;;;;5.33;2.37;;;7.30;99.90;;;;;;5053224;28;20204;-81
2021/04/10 04:35:12;;;;;;;5.60;1.83;;;7.30;99.90;;;;;;5070577;28;20200;-82
2021/04/10 04:37:40;;;;;;;9.40;2.50;;;7.20;99.90;;;;;;5083741;28;20724;-81
2021/04/10 04:40:09;;;;;;;8.47;2.70;;;7.20;99.90;;;;;;5073345;28;20221;-82
2021/04/10 04:42:35;;;;;;;6.07;2.37;;;7.10;99.90;;;;;;5088642;28;20214;-80
2021/04/10 04:45:03;;;;;;;7.57;2.30;;;7.00;99.90;;;;;;5066463;28;20237;-80
2021/04/10 04:47:29;;;;;;;4.87;2.60;;;7.10;99.90;;;;;;5088274;28;20210;-80
2021/04/10 04:49:56;;;;;;;6.57;2.40;;;7.30;99.90;;;;;;5083902;28;20296;-80
2021/04/10 04:52:22;;;;;;;10.97;2.73;;;7.10;99.90;;;;;;5082981;28;20260;-79
2021/04/10 04:54:51;;;;;;;4.07;2.03;;;7.00;99.90;;;;;;5073012;28;20343;-81
2021/04/10 04:57:21;;;;;;;9.33;3.27;;;7.00;99.90;;;;;;5089706;28;20203;-81
2021/04/10 04:59:48;;;;;;;5.50;2.90;;;6.90;99.90;;;;;;5075566;28;20205;-80
2021/04/10 05:02:15;;;;;;;8.50;3.37;;;6.90;99.90;;;;;;5070385;28;20252;-81
2021/04/10 05:04:42;;;;;;;7.50;3.23;;;6.90;99.90;;;;;;5074563;28;20233;-81
2021/04/10 05:07:08;;;;;;;5.63;2.60;;;6.90;99.90;;;;;;5088961;28;20259;-81
2021/04/10 05:09:34;;;;;;;9.73;3.07;;;6.80;99.90;;;;;;5088401;28;20204;-81
2021/04/10 05:12:01;;;;;;;6.80;2.97;;;6.70;99.90;;;;;;5070937;28;20192;-82
2021/04/10 05:14:27;;;;;;;7.90;3.23;;;6.90;99.90;;;;;;5055990;28;20200;-82
2021/04/10 05:16:55;;;;;;;8.70;3.50;;;7.00;99.90;;;;;;5086993;28;20209;-82
2021/04/10 05:19:22;;;;;;;13.50;3.33;;;6.90;99.90;;;;;;5088555;28;20200;-81
2021/04/10 05:21:48;;;;;;;8.00;3.13;;;6.90;99.90;;;;;;5083822;28;20202;-80
2021/04/10 05:24:14;;;;;;;5.03;3.00;;;7.00;99.90;;;;;;5090661;28;20193;-80
2021/04/10 05:26:41;;;;;;;5.63;2.63;;;7.00;99.90;;;;;;5073790;28;20209;-82
2021/04/10 05:29:07;;;;;;;9.03;3.57;;;7.10;99.90;;;;;;5078187;28;20198;-81
2021/04/10 05:31:34;;;;;;;8.00;3.30;;;7.10;99.90;;;;;;5101884;28;20830;-80
2021/04/10 05:34:00;;;;;;;9.10;3.40;;;7.00;99.90;;;;;;5052969;28;20203;-81
2021/04/10 05:36:28;;;;;;;7.53;3.40;;;7.00;99.90;;;;;;5083589;28;20207;-81
2021/04/10 05:38:54;;;;;;;9.37;3.97;;;6.90;99.90;;;;;;5085702;28;20206;-81
2021/04/10 05:41:20;;;;;;;7.43;3.80;;;6.90;99.90;;;;;;5072379;28;20220;-81
2021/04/10 05:43:48;;;;;;;7.43;3.23;;;6.70;99.90;;;;;;5069869;28;20210;-80
2021/04/10 05:46:14;;;;;;;7.90;3.07;;;6.90;99.90;;;;;;5075081;28;20214;-81
2021/04/10 05:48:42;;;;;;;7.57;3.47;;;7.00;99.90;;;;;;5068703;28;20237;-79
2021/04/10 05:51:09;;;;;;;13.43;3.30;;;7.00;99.90;;;;;;5067559;28;20202;-80
2021/04/10 05:53:38;;;;;;;6.97;4.00;;;6.90;99.90;;;;;;5073740;28;20659;-81
2021/04/10 05:56:04;;;;;;;11.13;4.23;;;6.90;99.90;;;;;;5073533;28;20214;-80
2021/04/10 05:58:31;;;;;;;7.23;3.50;;;6.90;99.90;;;;;;5071866;28;20204;-79
2021/04/10 06:00:58;;;;;;;8.73;3.70;;;6.90;99.90;;;;;;5071610;28;20208;-80
2021/04/10 06:03:25;;;;;;;10.47;3.63;;;7.20;99.90;;;;;;5088121;28;20625;-81
2021/04/10 06:05:51;;;;;;;8.63;4.00;;;7.10;99.90;;;;;;5084666;28;20756;-79
2021/04/10 06:08:19;;;;;;;8.27;3.90;;;6.90;99.90;;;;;;5073582;28;20513;-81
2021/04/10 06:10:47;;;;;;;8.40;3.87;;;7.00;99.90;;;;;;5084412;28;20231;-80
2021/04/10 06:13:15;;;;;;;9.23;4.13;;;7.10;99.90;;;;;;5072572;28;20205;-81
2021/04/10 06:15:41;;;;;;;9.03;3.53;;;7.10;99.90;;;;;;5087435;28;20202;-81
2021/04/10 06:18:09;;;;;;;6.70;3.90;;;7.20;99.90;;;;;;5088057;28;20195;-81
2021/04/10 06:20:35;;;;;;;10.30;4.10;;;7.20;99.90;;;;;;5071300;28;20286;-81
2021/04/10 06:23:02;;;;;;;12.10;3.97;;;7.10;99.90;;;;;;5088609;28;20264;-82
2021/04/10 06:25:28;;;;;;;4.70;3.33;;;7.10;99.90;;;;;;5067529;28;20220;-80
2021/04/10 06:27:56;;;;;;;11.43;4.80;;;7.10;99.90;;;;;;5058203;28;20215;-82
2021/04/10 06:30:23;;;;;;;10.20;4.00;;;7.10;99.90;;;;;;5075010;28;20207;-82
2021/04/10 06:32:49;;;;;;;8.90;3.80;;;7.20;99.90;;;;;;5065084;28;20201;-81
2021/04/10 06:35:15;;;;;;;7.37;3.83;;;7.30;99.90;;;;;;5069547;28;20215;-82
2021/04/10 06:37:42;;;;;;;7.80;3.87;;;7.20;99.90;;;;;;5067974;28;20661;-81
2021/04/10 06:40:09;;;;;;;9.07;4.50;;;7.30;99.90;;;;;;5068452;28;20252;-82
2021/04/10 06:42:40;;;;;;;10.53;4.57;;;7.30;99.90;;;;;;5081346;28;20195;-82
2021/04/10 06:45:07;;;;;;;13.20;4.00;;;7.40;99.90;;;;;;5089818;28;20385;-81
2021/04/10 06:47:35;;;;;;;14.93;5.27;;;7.40;99.90;;;;;;5084841;28;20227;-81
2021/04/10 06:50:05;;;;;;;12.67;4.03;;;7.40;99.90;;;;;;5082687;28;20301;-81
2021/04/10 06:52:41;;;;;;;10.00;4.43;;;7.50;99.90;;;;;;5074196;28;20197;-82
2021/04/10 06:55:11;;;;;;;7.27;4.10;;;7.60;99.90;;;;;;5070205;28;20293;-81
2021/04/10 06:57:52;;;;;;;12.83;5.37;;;7.40;99.90;;;;;;5083354;28;20261;-80
2021/04/10 07:00:20;;;;;;;8.87;4.60;;;7.40;99.90;;;;;;5080214;28;20713;-82
2021/04/10 07:02:49;;;;;;;13.30;5.23;;;7.40;99.90;;;;;;5067382;28;20210;-81
2021/04/10 07:05:16;;;;;;;8.97;4.20;;;7.50;99.90;;;;;;5097546;28;20214;-81
2021/04/10 07:07:43;;;;;;;6.37;4.37;;;7.40;99.90;;;;;;5080857;28;20206;-81
2021/04/10 07:10:11;;;;;;;11.00;4.90;;;7.50;99.90;;;;;;5085711;28;20200;-80
2021/04/10 07:12:40;;;;;;;10.03;4.53;;;7.50;99.90;;;;;;5082225;28;20198;-81
2021/04/10 07:15:10;;;;;;;10.60;4.80;;;7.50;99.90;;;;;;5097335;28;20213;-80
2021/04/10 07:17:36;;;;;;;14.77;5.63;;;7.60;99.90;;;;;;5077526;28;20202;-80
2021/04/10 07:20:21;;;;;;;11.27;4.80;;;7.80;99.90;;;;;;5081732;28;20212;-79
2021/04/10 07:23:14;;;;;;;9.07;4.70;;;7.60;99.90;;;;;;5083843;28;20242;-82
2021/04/10 07:25:43;;;;;;;9.93;5.17;;;7.60;99.90;;;;;;5078328;28;20243;-81
2021/04/10 07:28:25;;;;;;;7.30;4.87;;;7.70;99.90;;;;;;5080237;28;20216;-81
2021/04/10 07:30:58;;;;;;;10.73;4.63;;;7.60;99.90;;;;;;5083688;28;20202;-79
2021/04/10 07:33:32;;;;;;;10.27;4.40;;;7.80;99.90;;;;;;5082282;28;20209;-81
2021/04/10 07:36:01;;;;;;;13.60;4.70;;;7.80;99.90;;;;;;5082649;28;20232;-82
2021/04/10 07:38:36;;;;;;;7.50;4.27;;;7.70;99.90;;;;;;5067407;28;20207;-81
2021/04/10 07:41:20;;;;;;;10.23;4.80;;;7.60;99.90;;;;;;5084561;28;20248;-81
2021/04/10 07:43:48;;;;;;;7.57;4.20;;;7.60;99.90;;;;;;5069776;28;20204;-79
2021/04/10 07:46:15;;;;;;;9.67;4.17;;;7.50;99.90;;;;;;5085595;28;20226;-82
2021/04/10 07:49:00;;;;;;;13.10;4.60;;;7.60;99.90;;;;;;5080934;28;20320;-81
2021/04/10 07:51:29;;;;;;;10.40;4.60;;;7.80;99.90;;;;;;5083220;28;20203;-81
2021/04/10 07:53:57;;;;;;;9.83;3.90;;;7.70;99.90;;;;;;5066442;28;20246;-81
2021/04/10 07:56:23;;;;;;;9.33;4.00;;;7.60;99.90;;;;;;5067074;28;20206;-80
2021/04/10 07:58:50;;;;;;;11.80;4.60;;;7.60;99.90;;;;;;5065830;28;20198;-81
2021/04/10 08:01:16;;;;;;;8.70;3.73;;;7.70;99.90;;;;;;5070509;28;20237;-83
2021/04/10 08:03:48;;;;;;;7.37;3.63;;;7.70;99.90;;;;;;5087432;28;20656;-82
2021/04/10 08:06:16;;;;;;;7.90;4.07;;;7.60;99.90;;;;;;5085670;28;20211;-82
2021/04/10 08:08:51;;;;;;;9.73;4.00;;;7.70;99.90;;;;;;5071434;28;20248;-75
2021/04/10 08:11:41;;;;;;;9.73;4.07;;;7.70;99.90;;;;;;5079281;28;20254;-77
2021/04/10 08:14:11;;;;;;;11.03;4.00;;;7.90;99.90;;;;;;5079365;28;20197;-76
2021/04/10 08:16:45;;;;;;;7.90;4.67;;;7.90;99.90;;;;;;5077758;28;20244;-76
2021/04/10 08:19:13;;;;;;;16.97;4.40;;;8.10;99.90;;;;;;5060139;28;20243;-76
2021/04/10 08:21:44;;;;;;;10.00;4.67;;;8.30;99.90;;;;;;5075702;28;20223;-77
2021/04/10 08:24:34;;;;;;;9.07;4.00;;;8.30;99.90;;;;;;5077965;28;20236;-77
2021/04/10 08:27:11;;;;;;;13.30;4.10;;;8.40;99.90;;;;;;5075740;28;20208;-77
2021/04/10 08:29:39;;;;;;;9.60;4.77;;;8.40;99.90;;;;;;5078376;28;20256;-76
2021/04/10 08:32:08;;;;;;;11.50;4.20;;;8.40;99.90;;;;;;5074020;28;20258;-75
2021/04/10 08:34:35;;;;;;;10.63;4.57;;;8.30;99.90;;;;;;5074862;28;20304;-76
2021/04/10 08:37:08;;;;;;;11.50;4.27;;;8.10;99.90;;;;;;5078130;28;20223;-76
2021/04/10 08:39:44;;;;;;;6.70;3.83;;;8.20;99.90;;;;;;5075237;28;20219;-76
2021/04/10 08:42:14;;;;;;;12.70;4.00;;;8.30;99.90;;;;;;5080295;28;20202;-77
2021/04/10 08:44:43;;;;;;;6.70;3.40;;;8.40;99.90;;;;;;5083007;28;20226;-76
2021/04/10 08:47:11;;;;;;;11.93;4.13;;;8.50;99.90;;;;;;5080516;28;20212;-75
2021/04/10 08:49:43;;;;;;;8.17;3.83;;;8.60;99.90;;;;;;5081244;28;20328;-75
2021/04/10 08:52:14;;;;;;;8.70;4.67;;;8.40;99.90;;;;;;5077117;28;20293;-74
2021/04/10 08:54:42;;;;;;;13.53;5.00;;;8.50;99.90;;;;;;5077041;28;20226;-74
2021/04/10 08:57:11;;;;;;;10.90;4.30;;;8.50;99.90;;;;;;5064214;28;20263;-78
2021/04/10 08:59:46;;;;;;;10.63;4.50;;;8.50;99.90;;;;;;5082716;28;20614;-75
2021/04/10 09:02:21;;;;;;;9.60;4.33;;;8.50;99.90;;;;;;5063401;28;20194;-74
2021/04/10 09:04:58;;;;;;;12.20;4.23;;;8.60;99.90;;;;;;5077899;28;20196;-73
2021/04/10 09:07:49;;;;;;;6.63;4.00;;;8.60;99.90;;;;;;5079974;28;20206;-75
2021/04/10 09:10:42;;;;;;;9.30;4.07;;;8.60;99.90;;;;;;5076264;28;20217;-75
2021/04/10 09:13:08;;;;;;;13.00;4.47;;;8.50;99.90;;;;;;5074655;28;20205;-75
2021/04/10 09:15:34;;;;;;;12.27;4.33;;;8.40;99.90;;;;;;5081975;28;20209;-78
2021/04/10 09:18:05;;;;;;;8.10;3.53;;;8.40;99.90;;;;;;5060442;28;20202;-76
2021/04/10 09:21:08;;;;;;;6.47;4.40;;;8.30;99.90;;;;;;5083608;28;20254;-76
2021/04/10 09:23:34;;;;;;;12.10;4.80;;;8.50;99.90;;;;;;5085179;28;20206;-76
2021/04/10 09:26:15;;;;;;;8.40;4.77;;;8.60;99.90;;;;;;5078564;28;20244;-75
2021/04/10 09:29:03;;;;;;;8.47;4.63;;;8.60;99.90;;;;;;5076968;28;20214;-75
2021/04/10 09:32:10;;;;;;;14.83;4.70;;;8.80;99.90;;;;;;5077170;28;20969;-78
2021/04/10 09:34:46;;;;;;;9.47;4.73;;;8.70;99.90;;;;;;5064105;28;20586;-75
2021/04/10 09:37:32;;;;;;;7.87;4.10;;;8.80;99.90;;;;;;5079509;28;20199;-77
2021/04/10 09:40:03;;;;;;;10.33;4.50;;;8.90;99.90;;;;;;5079685;28;20940;-75
2021/04/10 09:42:44;;;;;;;11.73;4.53;;;8.90;99.90;;;;;;5083325;28;20244;-77
2021/04/10 09:45:34;;;;;;;7.77;4.90;;;9.10;99.90;;;;;;5076428;28;20221;-75
2021/04/10 09:48:04;;;;;;;11.97;5.10;;;8.80;99.90;;;;;;5082426;28;20287;-76
2021/04/10 09:50:37;;;;;;;9.80;5.07;;;8.80;99.90;;;;;;5077862;28;20232;-76
2021/04/10 09:53:18;;;;;;;11.90;5.10;;;8.90;99.90;;;;;;5082497;28;20216;-77
2021/04/10 09:56:08;;;;;;;11.73;5.00;;;9.00;99.90;;;;;;5079012;28;20754;-76
2021/04/10 09:58:38;;;;;;;11.10;4.90;;;9.10;99.90;;;;;;5079690;28;20565;-76
2021/04/10 10:01:14;;;;;;;12.70;5.33;;;9.20;99.90;;;;;;5076981;28;20633;-77
2021/04/10 10:03:41;;;;;;;7.87;5.07;;;9.30;99.90;;;;;;5074924;28;20206;-77
2021/04/10 10:06:16;;;;;;;8.70;5.03;;;9.20;99.90;;;;;;5073520;28;20220;-75
2021/04/10 10:08:46;;;;;;;10.30;5.40;;;9.00;99.90;;;;;;5075385;28;20201;-75
2021/04/10 10:11:13;;;;;;;10.23;5.20;;;8.80;99.90;;;;;;5080283;28;22028;-76
2021/04/10 10:13:40;;;;;;;12.50;5.80;;;8.80;99.90;;;;;;5077225;28;20203;-75
2021/04/10 10:16:07;;;;;;;11.13;5.13;;;8.90;99.90;;;;;;5079982;28;20209;-77
2021/04/10 10:18:38;;;;;;;11.13;5.80;;;8.90;99.90;;;;;;5076929;28;20284;-75
2021/04/10 10:21:16;;;;;;;13.73;5.60;;;9.10;99.90;;;;;;5079405;28;20206;-77
2021/04/10 10:23:45;;;;;;;11.13;4.73;;;9.20;99.90;;;;;;5078831;28;20211;-75
2021/04/10 10:26:31;;;;;;;10.13;5.27;;;9.30;99.90;;;;;;5079355;28;20257;-76
2021/04/10 10:29:04;;;;;;;6.00;4.63;;;9.10;99.90;;;;;;5081612;28;20237;-75
2021/04/10 10:31:39;;;;;;;15.70;5.47;;;9.00;99.90;;;;;;5078396;28;20193;-77
2021/04/10 10:34:08;;;;;;;10.63;5.97;;;9.20;99.90;;;;;;5078042;28;20202;-77
2021/04/10 10:36:36;;;;;;;10.90;5.73;;;9.20;99.90;;;;;;5093460;28;20336;-75
2021/04/10 10:39:08;;;;;;;8.83;5.10;;;9.20;99.90;;;;;;5076897;28;20201;-77
2021/04/10 10:41:44;;;;;;;8.83;5.30;;;8.90;99.90;;;;;;5080018;28;20230;-77
2021/04/10 10:44:11;;;;;;;12.27;5.43;;;9.00;99.90;;;;;;5083102;28;20263;-75
2021/04/10 10:46:38;;;;;;;11.33;5.60;;;8.90;99.90;;;;;;5076922;28;20213;-77
2021/04/10 10:49:09;;;;;;;10.50;5.60;;;8.80;99.90;;;;;;5079677;28;20328;-76
2021/04/10 10:51:41;;;;;;;14.33;6.27;;;8.90;99.90;;;;;;5076904;28;20208;-76
2021/04/10 10:54:08;;;;;;;10.27;6.03;;;8.80;99.90;;;;;;5092106;28;20212;-76
2021/04/10 10:56:35;;;;;;;11.83;5.73;;;8.90;99.90;;;;;;5074611;28;20206;-75
2021/04/10 10:59:07;;;;;;;10.13;6.30;;;8.80;99.90;;;;;;5078549;28;20199;-75
2021/04/10 11:01:35;;;;;;;10.13;6.03;;;8.90;99.90;;;;;;5078758;28;20192;-76
2021/04/10 13:09:23;;;;;;;14.03;10.30;;;8.20;99.90;;;;;;3407896;28;23352;-76
2021/04/10 13:11:49;;;;;;;13.23;9.43;;;8.30;99.90;;;;;;5077066;28;20384;-75
2021/04/10 13:14:16;;;;;;;13.30;9.70;;;8.40;99.90;;;;;;5067013;28;20260;-77
2021/04/10 13:16:42;;;;;;;16.50;10.10;;;8.40;99.90;;;;;;5075463;28;20200;-76
2021/04/10 13:19:13;;;;;;;16.50;9.93;;;8.40;99.90;;;;;;5073679;28;20199;-76
2021/04/10 13:21:40;;;;;;;14.77;10.47;;;8.30;99.90;;;;;;5080456;28;20203;-78
2021/04/10 13:24:07;;;;;;;13.37;10.33;;;8.30;99.90;;;;;;5077881;28;20208;-75
2021/04/10 13:26:34;;;;;;;16.40;10.27;;;8.30;99.90;;;;;;5080321;28;20352;-75
2021/04/10 13:29:01;;;;;;;12.13;10.00;;;8.20;99.90;;;;;;5081371;28;20196;-77
2021/04/10 13:31:27;;;;;;;19.97;10.47;;;8.10;99.90;;;;;;5082368;28;20196;-76
2021/04/10 13:33:53;;;;;;;15.87;10.53;;;8.10;99.90;;;;;;5062621;28;20201;-76
2021/04/10 13:36:19;;;;;;;17.93;11.87;;;8.10;99.90;;;;;;5062073;28;20638;-77
2021/04/10 13:38:46;;;;;;;19.23;10.67;;;8.00;99.90;;;;;;5079621;28;20206;-76
2021/04/10 13:41:12;;;;;;;14.03;11.50;;;8.10;99.90;;;;;;5077841;28;20234;-76
2021/04/10 13:43:38;;;;;;;22.10;11.50;;;8.10;99.90;;;;;;5081709;28;20490;-75
2021/04/10 13:46:05;;;;;;;18.30;12.83;;;8.20;99.90;;;;;;5079628;28;20316;-75
2021/04/10 13:48:31;;;;;;;16.40;10.67;;;8.00;99.90;;;;;;5079078;28;20639;-76
2021/04/10 13:50:57;;;;;;;17.53;11.90;;;7.90;99.90;;;;;;5081474;28;20199;-75
2021/04/10 13:53:24;;;;;;;15.73;11.60;;;7.90;99.90;;;;;;5062900;28;20199;-77
2021/04/10 13:55:50;;;;;;;16.87;11.27;;;7.90;99.90;;;;;;5079756;28;20258;-76
2021/04/10 13:58:17;;;;;;;13.80;11.40;;;8.00;99.90;;;;;;5064341;28;20241;-77
2021/04/10 14:00:43;;;;;;;17.87;12.40;;;7.90;99.90;;;;;;5080276;28;20665;-77
2021/04/10 14:03:09;;;;;;;17.67;12.20;;;8.10;99.90;;;;;;5077954;28;20209;-77
2021/04/10 14:05:36;;;;;;;18.10;11.87;;;8.20;99.90;;;;;;5061029;28;20716;-77
2021/04/10 14:08:07;;;;;;;18.83;11.90;;;8.40;99.90;;;;;;5079198;28;20277;-77
2021/04/10 14:10:34;;;;;;;19.23;11.97;;;8.30;99.90;;;;;;5080321;28;20734;-77
2021/04/10 14:13:01;;;;;;;18.33;11.83;;;8.10;99.90;;;;;;5075966;28;20204;-75
2021/04/10 14:15:30;;;;;;;16.47;11.43;;;8.20;99.90;;;;;;5079533;28;20210;-77
2021/04/10 14:17:58;;;;;;;15.53;11.60;;;8.10;99.90;;;;;;5085359;28;20343;-76
2021/04/10 14:20:28;;;;;;;17.17;10.63;;;8.10;99.90;;;;;;5059803;28;20225;-76
2021/04/10 14:22:54;;;;;;;18.50;11.70;;;8.00;99.90;;;;;;5077317;28;20902;-75
2021/04/10 14:25:23;;;;;;;22.87;11.90;;;8.10;99.90;;;;;;5075721;28;20676;-76
2021/04/10 14:27:50;;;;;;;16.63;11.33;;;8.20;99.90;;;;;;5079155;28;20205;-75
2021/04/10 14:30:23;;;;;;;19.67;11.03;;;8.20;99.90;;;;;;5079708;28;20205;-78
2021/04/10 14:32:50;;;;;;;17.13;11.07;;;8.00;99.90;;;;;;5077255;28;20248;-76
2021/04/10 14:35:28;;;;;;;14.90;10.43;;;8.10;99.90;;;;;;5076325;28;20616;-75
2021/04/10 14:37:54;;;;;;;16.07;11.13;;;8.10;99.90;;;;;;5080239;28;20298;-75
2021/04/10 14:40:22;;;;;;;16.70;10.13;;;8.10;99.90;;;;;;5085516;28;20280;-76
2021/04/10 14:42:49;;;;;;;13.80;9.93;;;8.10;99.90;;;;;;5080082;28;20204;-81
2021/04/10 14:45:17;;;;;;;13.97;9.30;;;8.00;99.90;;;;;;5086190;28;20204;-81
2021/04/10 14:47:43;;;;;;;13.37;10.03;;;8.10;99.90;;;;;;5066637;28;20217;-78
2021/04/10 14:50:11;;;;;;;15.20;9.97;;;8.20;99.90;;;;;;5070136;28;20233;-80
2021/04/10 14:52:37;;;;;;;13.03;10.10;;;8.20;99.90;;;;;;5076453;28;20238;-75
2021/04/10 14:55:06;;;;;;;11.90;7.90;;;8.40;99.90;;;;;;5080249;28;20257;-75
2021/04/10 14:57:32;;;;;;;13.83;8.90;;;8.30;99.90;;;;;;5075274;28;20262;-76
2021/04/10 15:00:05;;;;;;;14.43;8.80;;;7.90;99.90;;;;;;5078682;28;20206;-74
2021/04/10 15:02:35;;;;;;;15.97;9.33;;;8.00;99.90;;;;;;5076239;28;20238;-75
2021/04/10 15:05:07;;;;;;;13.93;8.63;;;8.10;99.90;;;;;;5060360;28;20204;-76
2021/04/10 15:07:33;;;;;;;12.87;8.43;;;8.00;99.90;;;;;;5076923;28;20568;-75
2021/04/10 15:10:01;;;;;;;14.00;8.77;;;8.00;99.90;;;;;;5076449;28;20286;-76